Granville, Vermont
Current Conditions -  °F | °C
As of 3:55 PM on Tuesday 27 Jan 2015 (Local Time) from K6B0 Reporting Station
Light Snow Light Snow  
Wind Chill: -9°   Ceiling: 1800
Heat Index:   Visibility: 1.2mi
Dew Point:   Wind: 14mph
Humidity: 79%   Direction: 360°N
Pressure: 29.84"   Gusts: 28mph
Location:  43.98°N, 72.85°W
Report Text: K6B0 272055Z AUTO 36012G24KT 1 1/4SM -SN OVC018 M14/M16 A2984 RMK AO2 T11361165
Loading
Personal Weather Stations






























Interactive Weather Map New forecast layout! Learn more

10-Day Weather Forecast

Advertisements
Track Severe Weather on mobile